x

Buoy I01 - Eastern Maine Shelf (44034) Wave Buoy

10:04pm - Sat 25th Apr 2015 All times are EDT. -4 hours from GMT.

  • Sig Wave height 1.6ft
  • Peak Period 4s
  • Wind
    11mph, 13mph gusts
  • Sea Temp 39°f
  • Air Temp 40°f
  • Sea Pressure 1003.7mb
  • Buoy I01 - Eastern Maine Shelf
  • Buoy I01 - Eastern Maine Shelf

More Historic Weather Station data

Upgrade to MSW Pro to gain access to the past 30 days of data for over 8000 Wavebouys and Weather Stations around the globe.

Join Pro

Comparision Forecast

View Surf forecast
   
Sat 04/25 10:04pm 1.6ft 4s 11 13 mph 1003.7mb 39f 40f
9:04pm 2ft 8s 13 16 mph 1003.7mb 39f 40f
8:04pm 2.5ft 11s 13 16 mph 1003.3mb 39f 41f
3:04pm 2ft 8s 11 13 mph 1002.7mb 39f 39f
2:04pm 1.6ft 4s 11 13 mph 1003.1mb 39f 39f
12:04pm 1.6ft 5s 11
mph
1003.4mb 39f 39f
10:04am 2.5ft 8s 11 13 mph 1003.4mb 39f 38f
9:04am 2ft 4s 13 18 mph 1003.4mb 39f 37f
8:04am 2.5ft 4s 13 18 mph 1003.7mb 39f 37f
6:04am 2ft 4s 16
mph
1003.1mb 39f 37f
5:04am 2.5ft 4s 16 18 mph 1002.7mb 39f 37f
2:04am 2.5ft 5s 13 18 mph 1002.9mb 39f 37f
1:04am 3ft 5s 16 18 mph 1003.2mb 39f 37f
12:04am 3.5ft 8s 16 18 mph 1003.4mb 39f 37f
Fri 04/24 11:04pm 3ft 4s 18 22 mph 1003.3mb 39f 38f
10:04pm 3.5ft 4s 22 27 mph 1003.2mb 39f 38f
9:04pm 4ft 3s 22 27 mph 1003mb 39f 39f
4:04pm 3.5ft 8s 9
mph
999.9mb 39f 41f
2:04pm 3.5ft 11s 7
mph
1000.5mb 39f 41f
10:04am 4.5ft 8s 16 20 mph 1000.9mb 39f 38f
9:04am 4ft 8s 16 18 mph 1000.9mb 38f 38f
8:04am 4.5ft 11s 16 22 mph 1000.8mb 38f 37f
7:04am 4ft 8s 16 20 mph 1000.5mb 38f 37f
6:04am 2.5ft 3s 16 20 mph 1000.2mb 39f 37f
5:04am 3ft 6s 18 22 mph 999.9mb 39f 37f
4:04am 3.5ft 8s 18 20 mph 999.8mb 39f 38f
3:04am 4ft 8s 16 18 mph 999.8mb 39f 37f
2:04am 4ft 8s 16 20 mph 999.9mb 39f 37f
1:04am 4ft 8s 20 22 mph 999.9mb 39f 38f
12:04am 4.5ft 8s 18 20 mph 1000mb 39f 38f
Thu 04/23 11:04pm 4.5ft 8s 20 25 mph 999.8mb 39f 39f
9:04pm 4.5ft 8s 11 13 mph 999.7mb 39f 41f
6:04pm 4.5ft 8s 11 13 mph 999mb 39f 41f
4:04pm 4.5ft 11s 9 11 mph 998.8mb 40f 41f
3:04pm 4.5ft 6s 7 9 mph 999mb 39f 41f
10:04am 7ft 8s 13 16 mph 1000.2mb 38f 40f
9:04am 7.5ft 6s 18 20 mph 999.8mb 38f 40f
8:04am  -   -  18 20 mph 999.1mb 38f 40f
7:04am 7.5ft 11s 20 25 mph 998.5mb 38f 41f
6:04am 7ft 11s 20 22 mph 997.4mb 38f 42f
5:04am 5ft 5s 20 25 mph 997.6mb 38f 43f
4:04am 7ft 11s 22 27 mph 997.4mb 39f 43f
3:04am 7ft 11s 18 20 mph 998.2mb 39f 43f
2:04am 7ft 11s 22 27 mph 999.4mb 39f 44f
12:04am 5.5ft 11s 18 20 mph 1001.6mb 39f 44f
Wed 04/22 11:04pm 5.5ft 11s 16 18 mph 1003.2mb 38f 44f
10:04pm 6ft 11s 18 20 mph 1004mb 38f 42f
7:04pm 6.5ft 11s 13 18 mph 1005.8mb 40f 44f
6:04pm 6ft 11s 11 13 mph 1005.6mb 40f 43f
5:04pm 7.5ft 11s 9 11 mph 1006mb 40f 43f
3:04pm 6ft 11s 7 9 mph 1006.5mb 42f 43f
11:04am 7ft 11s 4 7 mph 1008.4mb 39f 42f
9:04am 9.5ft 11s 4
mph
1008.1mb 38f 41f
8:04am 8.5ft 11s 4 7 mph 1007.8mb 38f 41f
7:04am 8ft 11s 2 4 mph 1007.2mb 38f 42f
6:04am 8.5ft 11s 4 7 mph 1006.8mb 38f 40f
5:04am 10ft 11s 4 7 mph 1007mb 38f 40f
4:04am 11ft 11s 7 11 mph 1006.5mb 38f 40f